createdAt,value
2023-04-17T03:59:11.211Z,50.25
2023-04-17T04:00:11.389Z,50.35
2023-04-17T04:01:10.673Z,50.25
2023-04-17T04:02:10.717Z,49.87
2023-04-17T04:03:10.882Z,50.54
2023-04-17T04:04:10.885Z,49.87
2023-04-17T04:05:10.651Z,49.87
2023-04-17T04:06:10.615Z,50.45
2023-04-17T04:07:10.593Z,50.25
2023-04-17T04:08:10.582Z,50.35
2023-04-17T04:09:10.870Z,50.73
2023-04-17T04:10:10.577Z,50.63
2023-04-17T04:11:10.552Z,50.63
2023-04-17T04:12:10.561Z,50.73
2023-04-17T04:13:10.566Z,50.63
2023-04-17T04:14:10.545Z,51.02
2023-04-17T04:15:10.576Z,50.63
2023-04-17T04:16:10.600Z,50.83
2023-04-17T04:17:10.567Z,50.54
2023-04-17T04:18:10.558Z,50.54
2023-04-17T04:19:10.786Z,50.54
2023-04-17T04:20:10.550Z,50.35
2023-04-17T04:21:10.520Z,51.21
2023-04-17T04:22:10.525Z,51.02
2023-04-17T04:23:10.504Z,50.45
2023-04-17T04:24:10.566Z,51.21
2023-04-17T04:25:10.506Z,51.12
2023-04-17T04:26:10.507Z,51.12
2023-04-17T04:27:10.568Z,51.02
2023-04-17T04:28:10.642Z,51.12
2023-04-17T04:29:10.683Z,51.02
2023-04-17T04:30:10.500Z,51.02
2023-04-17T04:31:10.524Z,51.02
2023-04-17T04:32:10.541Z,51.12
2023-04-17T04:33:10.466Z,51.05
2023-04-17T04:34:10.451Z,51.24
2023-04-17T04:35:10.489Z,50.27
2023-04-17T04:36:10.473Z,50.47
2023-04-17T04:37:10.473Z,50.45
2023-04-17T04:38:11.660Z,51.14
2023-04-17T04:39:10.693Z,50.47
2023-04-17T04:40:10.514Z,50.47
2023-04-17T04:41:10.541Z,51.24
2023-04-17T04:42:10.488Z,50.57
2023-04-17T04:43:10.428Z,50.57
2023-04-17T04:44:10.425Z,51.14
2023-04-17T04:45:10.459Z,51.05
2023-04-17T04:46:10.468Z,50.66
2023-04-17T04:47:10.443Z,50.95
2023-04-17T04:48:10.403Z,51.24
2023-04-17T04:49:10.657Z,50.66
2023-04-17T04:50:10.414Z,51.05
2023-04-17T04:51:10.406Z,50.85
2023-04-17T04:52:10.383Z,50.85
2023-04-17T04:53:10.378Z,50.66
2023-04-17T04:54:10.381Z,50.76
2023-04-17T04:55:10.388Z,50.66
2023-04-17T04:56:10.442Z,50.76
2023-04-17T04:57:10.383Z,50.57
2023-04-17T04:58:10.371Z,50.66
2023-04-17T04:59:10.623Z,50.57
2023-04-17T05:00:10.364Z,50.76
2023-04-17T05:01:10.521Z,50.76
2023-04-17T05:02:10.419Z,50.18
2023-04-17T05:03:10.550Z,50.66
2023-04-17T05:04:10.605Z,50.76
2023-04-17T05:05:10.361Z,50.66
2023-04-17T05:06:10.369Z,50.66
2023-04-17T05:07:10.372Z,50.27
2023-04-17T05:08:10.337Z,50.37
2023-04-17T05:09:10.606Z,50.27
2023-04-17T05:10:10.325Z,50.37
2023-04-17T05:11:10.336Z,50.47
2023-04-17T05:12:10.331Z,50.57
2023-04-17T05:13:10.307Z,50.49
2023-04-17T05:14:10.316Z,50.27
2023-04-17T05:15:10.308Z,50.37
2023-04-17T05:16:10.373Z,50.21
2023-04-17T05:17:10.323Z,50.30
2023-04-17T05:18:10.333Z,50.27
2023-04-17T05:19:10.580Z,50.11
2023-04-17T05:20:10.283Z,50.21
2023-04-17T05:21:10.314Z,50.11
2023-04-17T05:22:10.276Z,50.21
2023-04-17T05:23:10.291Z,50.11
2023-04-17T05:24:10.328Z,50.11
2023-04-17T05:25:10.278Z,50.11
2023-04-17T05:26:10.479Z,50.11
2023-04-17T05:27:10.286Z,50.01
2023-04-17T05:28:10.300Z,50.30
2023-04-17T05:29:10.353Z,50.21
2023-04-17T05:30:10.249Z,50.30
2023-04-17T05:31:10.518Z,50.01
2023-04-17T05:32:10.364Z,49.82
2023-04-17T05:33:10.285Z,50.11
2023-04-17T05:34:10.241Z,50.01
2023-04-17T05:35:10.238Z,50.11
2023-04-17T05:36:10.521Z,50.11
2023-04-17T05:37:10.343Z,50.01
2023-04-17T05:38:10.253Z,49.91
2023-04-17T05:39:10.573Z,50.40
2023-04-17T05:40:10.223Z,50.30
2023-04-17T05:41:10.234Z,50.59
2023-04-17T05:42:10.240Z,50.49
2023-04-17T05:43:10.203Z,50.21
2023-04-17T05:44:10.240Z,50.01
2023-04-17T05:45:10.290Z,50.40
2023-04-17T05:46:10.258Z,50.01
2023-04-17T05:47:10.307Z,50.11
2023-04-17T05:48:10.208Z,49.91
2023-04-17T05:49:10.369Z,49.73
2023-04-17T05:50:10.196Z,49.91
2023-04-17T05:51:10.206Z,50.01
2023-04-17T05:52:10.262Z,50.30
2023-04-17T05:53:10.168Z,50.01
2023-04-17T05:54:10.178Z,50.21
2023-04-17T05:55:10.164Z,50.40
2023-04-17T05:56:10.199Z,50.30
2023-04-17T05:57:10.372Z,50.01
2023-04-17T05:58:23.079Z,50.30
2023-04-17T05:59:13.049Z,50.21
2023-04-17T06:00:10.219Z,50.23
2023-04-17T06:01:10.144Z,49.75
2023-04-17T06:02:10.271Z,50.23
2023-04-17T06:03:10.332Z,49.84
2023-04-17T06:04:10.400Z,49.94
2023-04-17T06:05:10.356Z,49.94
2023-04-17T06:06:10.140Z,49.94
2023-04-17T06:07:11.032Z,50.04
2023-04-17T06:08:10.135Z,49.75
2023-04-17T06:09:10.529Z,50.42
2023-04-17T06:10:10.249Z,49.75
2023-04-17T06:11:10.140Z,49.65
2023-04-17T06:12:10.104Z,49.84
2023-04-17T06:13:10.271Z,49.75
2023-04-17T06:14:10.169Z,50.04
2023-04-17T06:15:10.110Z,49.94
2023-04-17T06:16:11.014Z,50.04
2023-04-17T06:17:10.215Z,50.04
2023-04-17T06:18:11.031Z,50.04
2023-04-17T06:19:10.296Z,50.13
2023-04-17T06:20:10.111Z,50.23
2023-04-17T06:21:10.135Z,50.23
2023-04-17T06:22:10.101Z,50.13
2023-04-17T06:23:10.072Z,49.94
2023-04-17T06:24:10.058Z,50.23
2023-04-17T06:25:10.091Z,50.32
2023-04-17T06:26:10.071Z,50.13
2023-04-17T06:27:10.084Z,50.04
2023-04-17T06:28:10.369Z,50.04
2023-04-17T06:30:42.655Z,49.65
2023-04-17T06:31:42.621Z,49.94
2023-04-17T06:32:42.709Z,50.04
2023-04-17T06:33:42.660Z,50.04
2023-04-17T06:34:58.151Z,49.94
2023-04-17T06:35:42.631Z,49.94
2023-04-17T06:36:42.571Z,49.87
2023-04-17T06:37:42.658Z,50.04
2023-04-17T06:38:42.666Z,49.84
2023-04-17T06:39:42.604Z,49.87
2023-04-17T06:40:42.573Z,49.87
2023-04-17T06:41:42.566Z,49.87
2023-04-17T06:42:42.541Z,49.87
2023-04-17T06:44:42.640Z,49.87
2023-04-17T06:45:42.544Z,50.16
2023-04-17T06:46:42.627Z,49.48
2023-04-17T06:47:42.632Z,49.68
2023-04-17T06:48:42.558Z,49.48
2023-04-17T06:49:42.641Z,49.58
2023-04-17T06:50:42.585Z,49.68
2023-04-17T06:51:42.534Z,49.68
2023-04-17T06:52:42.611Z,49.58
2023-04-17T06:53:42.584Z,49.58
2023-04-17T06:54:42.515Z,49.68
2023-04-17T06:55:42.566Z,49.68
2023-04-17T06:56:42.530Z,49.68
2023-04-17T06:57:42.499Z,49.87
2023-04-17T06:58:42.664Z,49.39
2023-04-17T06:59:42.545Z,49.48
2023-04-17T07:00:42.540Z,49.48
2023-04-17T07:01:42.613Z,49.68
2023-04-17T07:02:42.633Z,49.58
2023-04-17T07:03:42.788Z,49.68
2023-04-17T07:04:42.605Z,49.68
2023-04-17T07:05:44.240Z,49.77
2023-04-17T07:06:42.477Z,49.58
2023-04-17T07:07:42.537Z,49.68
2023-04-17T07:08:42.506Z,49.77
2023-04-17T07:09:42.490Z,49.29
2023-04-17T07:10:42.526Z,49.32
2023-04-17T07:11:42.451Z,49.32
2023-04-17T07:12:42.464Z,49.39
2023-04-17T07:13:42.435Z,49.60
2023-04-17T07:14:42.478Z,49.41
2023-04-17T07:15:42.596Z,49.41
2023-04-17T07:16:42.982Z,49.41
2023-04-17T07:17:42.492Z,49.60
2023-04-17T07:18:42.433Z,49.70
2023-04-17T07:19:42.485Z,49.51
2023-04-17T07:20:42.550Z,49.80
2023-04-17T07:21:42.464Z,49.22
2023-04-17T07:22:42.428Z,49.60
2023-04-17T07:23:42.470Z,49.41
2023-04-17T07:24:42.412Z,49.22
2023-04-17T07:25:42.970Z,49.32
2023-04-17T07:26:42.433Z,49.60
2023-04-17T07:27:42.415Z,49.32
2023-04-17T07:28:42.402Z,49.60
2023-04-17T07:29:42.515Z,49.41
2023-04-17T07:30:42.537Z,49.32
2023-04-17T07:31:42.484Z,49.32
2023-04-17T07:32:42.484Z,49.02
2023-04-17T07:33:42.464Z,49.41
2023-04-17T07:34:42.418Z,49.22
2023-04-17T07:35:42.522Z,49.02
2023-04-17T07:36:42.372Z,49.12
2023-04-17T07:37:42.564Z,49.22
2023-04-17T07:38:42.465Z,49.15
2023-04-17T07:39:42.419Z,49.44
2023-04-17T07:40:42.375Z,49.24
2023-04-17T07:41:42.457Z,49.15
2023-04-17T07:42:42.422Z,49.15
2023-04-17T07:43:42.405Z,49.34
2023-04-17T07:44:42.378Z,49.34
2023-04-17T07:45:42.401Z,49.15
2023-04-17T07:46:42.453Z,49.15
2023-04-17T07:47:42.469Z,49.05
2023-04-17T07:48:42.356Z,48.86
2023-04-17T07:49:42.423Z,49.05
2023-04-17T07:50:42.350Z,48.95
2023-04-17T07:51:42.369Z,48.95
2023-04-17T07:52:42.471Z,49.05
2023-04-17T07:53:42.372Z,49.17
2023-04-17T07:54:43.281Z,48.97
2023-04-17T07:55:42.346Z,48.97
2023-04-17T07:56:42.575Z,48.88
2023-04-17T07:57:42.359Z,48.97
2023-04-17T07:58:42.358Z,48.97
2023-04-17T07:59:42.372Z,49.07
2023-04-17T08:00:42.451Z,48.97
2023-04-17T08:01:42.414Z,48.69
2023-04-17T08:02:42.583Z,48.69
2023-04-17T08:03:42.564Z,48.97
2023-04-17T08:04:42.383Z,48.88
2023-04-17T08:05:42.335Z,48.88
2023-04-17T08:06:42.316Z,48.79
2023-04-17T08:07:42.363Z,48.69
2023-04-17T08:08:42.338Z,48.59
2023-04-17T08:09:44.021Z,48.59
2023-04-17T08:10:42.334Z,48.90
2023-04-17T08:11:55.694Z,48.71
2023-04-17T08:12:42.311Z,48.81
2023-04-17T08:13:42.360Z,48.71
2023-04-17T08:14:42.496Z,48.61
2023-04-17T08:15:42.307Z,48.61
2023-04-17T08:16:42.353Z,48.71
2023-04-17T08:17:42.339Z,48.42
2023-04-17T08:18:42.358Z,48.61
2023-04-17T08:19:42.318Z,48.61
2023-04-17T08:20:42.289Z,48.61
2023-04-17T08:21:42.322Z,48.52
2023-04-17T08:22:42.296Z,48.52
2023-04-17T08:23:42.453Z,48.52
2023-04-17T08:24:42.449Z,48.52
2023-04-17T08:25:42.291Z,48.44
2023-04-17T08:26:42.299Z,48.42
2023-04-17T08:27:42.281Z,48.64
2023-04-17T08:28:42.567Z,48.54
2023-04-17T08:29:42.325Z,48.54
2023-04-17T08:30:42.516Z,48.54
2023-04-17T08:31:42.277Z,48.44
2023-04-17T08:32:42.387Z,48.54
2023-04-17T08:33:42.330Z,48.35
2023-04-17T08:34:42.334Z,48.44
2023-04-17T08:35:42.426Z,48.44
2023-04-17T08:36:42.262Z,48.44
2023-04-17T08:37:42.346Z,48.44
2023-04-17T08:38:42.448Z,48.25
2023-04-17T08:39:42.299Z,48.35
2023-04-17T08:40:42.257Z,48.25
2023-04-17T08:41:42.410Z,48.25
2023-04-17T08:42:42.611Z,48.35
2023-04-17T08:43:42.251Z,48.25
2023-04-17T08:44:42.558Z,48.16
2023-04-17T08:45:42.562Z,48.35
2023-04-17T08:46:42.525Z,48.35
2023-04-17T08:48:42.264Z,48.35
2023-04-17T08:49:43.760Z,48.25
2023-04-17T08:50:42.359Z,48.25
2023-04-17T08:51:42.396Z,48.16
2023-04-17T08:52:42.411Z,48.37
2023-04-17T08:53:42.248Z,48.16
2023-04-17T08:54:42.242Z,48.27
2023-04-17T08:55:42.277Z,48.27
2023-04-17T08:56:42.274Z,48.08
2023-04-17T08:57:42.260Z,48.18
2023-04-17T08:58:42.359Z,48.18
2023-04-17T08:59:42.303Z,48.08
2023-04-17T09:00:42.269Z,48.08
2023-04-17T09:01:42.487Z,47.99
2023-04-17T09:02:42.583Z,48.27
2023-04-17T09:03:42.451Z,48.08
2023-04-17T09:04:42.633Z,48.18
2023-04-17T09:05:42.405Z,47.99
2023-04-17T09:06:42.543Z,47.99
2023-04-17T09:11:47.371Z,48.08
2023-04-17T09:12:47.360Z,48.01
2023-04-17T09:13:47.364Z,48.01
2023-04-17T09:14:50.467Z,48.01
2023-04-17T09:15:47.476Z,48.01
2023-04-17T09:16:47.500Z,48.01
2023-04-17T09:17:47.442Z,48.11
2023-04-17T09:18:47.371Z,48.01
2023-04-17T09:19:47.517Z,47.81
2023-04-17T09:20:47.539Z,47.91
2023-04-17T09:21:47.500Z,48.01
2023-04-17T09:22:48.374Z,48.01
2023-04-17T09:23:47.372Z,47.91
2023-04-17T09:24:47.427Z,48.01
2023-04-17T09:25:47.473Z,47.81
2023-04-17T09:26:48.479Z,48.01
2023-04-17T09:27:47.394Z,47.94
2023-04-17T09:28:47.390Z,48.03
2023-04-17T09:29:47.610Z,47.74
2023-04-17T09:30:47.377Z,48.03
2023-04-17T09:31:47.422Z,47.84
2023-04-17T09:32:47.375Z,47.74
2023-04-17T09:33:47.392Z,47.64
2023-04-17T09:34:48.166Z,47.74
2023-04-17T09:35:47.362Z,47.84
2023-04-17T09:36:47.398Z,47.74
2023-04-17T09:37:47.349Z,47.74
2023-04-17T09:38:47.429Z,47.84
2023-04-17T09:39:47.375Z,47.74
2023-04-17T09:40:47.403Z,47.84
2023-04-17T09:41:47.426Z,47.84
2023-04-17T09:42:47.386Z,47.84
2023-04-17T09:43:47.359Z,47.94
2023-04-17T09:44:47.471Z,47.74
2023-04-17T09:45:47.374Z,47.74
2023-04-17T09:46:47.661Z,47.84
2023-04-17T09:47:47.577Z,47.94
2023-04-17T09:48:47.371Z,47.67
2023-04-17T09:49:47.366Z,47.74
2023-04-17T09:50:47.359Z,47.74
2023-04-17T09:51:47.465Z,47.67
2023-04-17T09:52:47.348Z,47.67
2023-04-17T09:53:47.556Z,47.67
2023-04-17T09:54:47.348Z,47.77
2023-04-17T09:55:47.367Z,47.57
2023-04-17T09:57:47.388Z,47.77
2023-04-17T09:58:47.346Z,47.67
2023-04-17T09:59:47.388Z,47.47
2023-04-17T10:00:47.400Z,47.77
2023-04-17T10:01:47.403Z,47.77
2023-04-17T10:13:36.528Z,46.89
2023-04-17T10:14:36.483Z,46.99
2023-04-17T10:15:36.441Z,46.89
2023-04-17T10:16:36.528Z,46.92
2023-04-17T10:17:36.513Z,47.40
2023-04-17T10:18:36.465Z,47.20
2023-04-17T10:19:36.467Z,47.30
2023-04-17T10:20:36.466Z,47.40
2023-04-17T10:21:36.483Z,47.40
2023-04-17T10:22:36.510Z,46.92
2023-04-17T10:24:36.478Z,47.40
2023-04-17T10:25:36.448Z,47.20
2023-04-17T10:26:36.577Z,47.30
2023-04-17T10:27:37.564Z,47.30
2023-04-17T10:28:36.477Z,47.11
2023-04-17T10:29:36.529Z,47.02
2023-04-17T10:30:36.454Z,47.30
2023-04-17T10:31:36.502Z,47.02
2023-04-17T10:33:36.538Z,47.20
2023-04-17T10:34:36.478Z,47.20
2023-04-17T10:36:36.484Z,47.23
2023-04-17T10:37:36.555Z,47.13
2023-04-17T10:38:36.601Z,46.94
2023-04-17T10:39:36.508Z,47.03
2023-04-17T10:40:36.454Z,47.03
2023-04-17T10:41:36.506Z,47.23
2023-04-17T10:42:36.545Z,47.13
2023-04-17T10:43:36.550Z,47.23
2023-04-17T10:44:36.583Z,47.23
2023-04-17T10:45:36.489Z,47.03
2023-04-17T10:46:36.549Z,46.94
2023-04-17T10:47:36.496Z,46.96
2023-04-17T10:48:36.720Z,46.96
2023-04-17T10:49:36.453Z,46.96
2023-04-17T10:50:36.547Z,46.86
2023-04-17T10:51:36.507Z,47.16
2023-04-17T10:52:36.546Z,46.96
2023-04-17T10:53:36.515Z,47.06
2023-04-17T10:54:36.509Z,46.77
2023-04-17T10:55:36.484Z,46.86
2023-04-17T10:56:36.515Z,47.25
2023-04-17T10:57:36.478Z,47.16
2023-04-17T10:58:36.582Z,47.06
2023-04-17T10:59:36.595Z,47.16
2023-04-17T11:00:36.509Z,46.89
2023-04-17T11:01:36.601Z,46.89
2023-04-17T11:02:36.519Z,46.89
2023-04-17T11:03:37.128Z,46.50
2023-04-17T11:04:37.621Z,46.79
2023-04-17T11:05:36.553Z,46.79
2023-04-17T11:06:36.584Z,46.79
2023-04-17T11:07:36.484Z,46.60
2023-04-17T11:08:36.489Z,46.62
2023-04-17T11:09:36.515Z,46.79
2023-04-17T11:10:36.502Z,46.72
2023-04-17T11:11:43.969Z,46.72
2023-04-17T11:12:36.510Z,46.52
2023-04-17T11:13:36.511Z,46.62
2023-04-17T11:14:36.531Z,46.72
2023-04-17T11:15:37.552Z,46.62
2023-04-17T11:16:36.654Z,46.94
2023-04-17T11:17:36.668Z,47.03
2023-04-17T11:18:36.534Z,46.74
2023-04-17T11:19:36.637Z,46.74
2023-04-17T11:20:36.534Z,46.64
2023-04-17T11:21:36.570Z,46.25
2023-04-17T11:22:36.586Z,46.55
2023-04-17T11:23:36.516Z,46.84
2023-04-17T11:24:37.204Z,47.03
2023-04-17T11:25:36.644Z,46.35
2023-04-17T11:26:36.539Z,46.06
2023-04-17T11:27:36.554Z,46.18
2023-04-17T11:28:36.510Z,46.37
2023-04-17T11:29:36.532Z,46.08
2023-04-17T11:30:36.544Z,46.08
2023-04-17T11:31:36.596Z,46.57
2023-04-17T11:32:36.579Z,46.01
2023-04-17T11:33:36.552Z,46.20
2023-04-17T11:34:36.538Z,46.11
2023-04-17T11:35:36.576Z,45.81
2023-04-17T11:36:36.556Z,45.81
2023-04-17T11:37:37.296Z,45.94
2023-04-17T11:38:36.558Z,45.84
2023-04-17T11:39:36.556Z,45.84
2023-04-17T11:40:36.600Z,45.84
2023-04-17T11:41:36.568Z,45.84
2023-04-17T11:42:36.589Z,45.94
2023-04-17T11:43:36.592Z,46.03
2023-04-17T11:44:36.558Z,45.54
2023-04-17T11:45:37.296Z,45.76
2023-04-17T11:46:36.616Z,45.67
2023-04-17T11:47:36.607Z,45.18
2023-04-17T11:48:36.615Z,45.57
2023-04-17T11:49:36.592Z,45.37
2023-04-17T11:50:36.585Z,44.89
2023-04-17T11:51:36.633Z,44.98
2023-04-17T11:52:36.584Z,44.98
2023-04-17T11:53:36.599Z,45.08
2023-04-17T11:54:36.603Z,45.18
2023-04-17T11:55:36.598Z,45.10
2023-04-17T11:56:36.606Z,45.08
2023-04-17T11:57:36.600Z,44.81
2023-04-17T11:58:36.623Z,44.90
2023-04-17T11:59:36.609Z,44.81
2023-04-17T12:00:36.625Z,45.00
2023-04-17T12:01:36.650Z,44.90
2023-04-17T12:02:36.762Z,44.69
2023-04-17T12:03:36.981Z,44.69
2023-04-17T12:04:36.938Z,44.71
2023-04-17T12:05:36.703Z,44.62
2023-04-17T12:06:36.675Z,44.52
2023-04-17T12:07:36.672Z,44.32
2023-04-17T12:08:36.683Z,44.34
2023-04-17T12:09:36.797Z,44.24
2023-04-17T12:10:36.694Z,44.05
2023-04-17T12:11:36.720Z,44.24
2023-04-17T12:12:36.665Z,44.44
2023-04-17T12:13:36.677Z,44.15
2023-04-17T12:14:36.690Z,44.13
2023-04-17T12:15:36.680Z,44.15
2023-04-17T12:16:36.756Z,44.03
2023-04-17T12:17:36.683Z,44.23
2023-04-17T12:18:36.686Z,44.13
2023-04-17T12:19:36.694Z,44.32
2023-04-17T12:20:36.688Z,44.42
2023-04-17T12:21:36.707Z,44.32
2023-04-17T12:22:36.702Z,44.32
2023-04-17T12:23:36.690Z,43.71
2023-04-17T12:24:36.694Z,43.91
2023-04-17T12:25:36.687Z,43.91
2023-04-17T12:26:36.728Z,44.40
2023-04-17T12:27:36.696Z,43.81
2023-04-17T12:28:36.706Z,44.18
2023-04-17T12:30:36.705Z,43.62
2023-04-17T12:31:36.787Z,43.43
2023-04-17T12:32:36.826Z,43.91
2023-04-17T12:33:36.725Z,43.81
2023-04-17T12:34:36.754Z,43.54
2023-04-17T12:35:36.721Z,43.43
2023-04-17T12:36:36.739Z,43.43
2023-04-17T12:37:36.774Z,43.91
2023-04-17T12:38:36.761Z,43.70
2023-04-17T12:39:36.830Z,43.70
2023-04-17T12:40:36.733Z,43.60
2023-04-17T12:41:36.725Z,43.43
2023-04-17T12:42:48.240Z,43.15
2023-04-17T12:43:36.736Z,42.96
2023-04-17T12:44:36.745Z,42.86
2023-04-17T12:45:36.818Z,42.69
2023-04-17T12:46:36.737Z,42.41
2023-04-17T12:47:36.765Z,42.02
2023-04-17T12:48:36.744Z,42.05
2023-04-17T12:49:36.747Z,41.95
2023-04-17T12:50:36.762Z,41.77
2023-04-17T12:51:36.743Z,41.77
2023-04-17T12:52:36.758Z,41.50
2023-04-17T12:53:36.767Z,41.31
2023-04-17T12:54:36.823Z,41.60
2023-04-17T12:55:36.770Z,41.82
2023-04-17T12:56:36.787Z,41.52
2023-04-17T12:57:36.830Z,41.42
2023-04-17T12:58:36.787Z,41.35
2023-04-17T12:59:36.801Z,41.54
2023-04-17T13:00:36.793Z,41.60
2023-04-17T13:01:36.983Z,42.19
2023-04-17T13:02:36.908Z,42.46
2023-04-17T13:03:37.071Z,42.36
2023-04-17T13:04:36.916Z,42.29
2023-04-17T13:05:36.823Z,42.55
2023-04-17T13:06:36.828Z,42.44
2023-04-17T13:07:36.851Z,42.54
2023-04-17T13:08:36.880Z,42.73
2023-04-17T13:09:36.839Z,42.71
2023-04-17T13:10:36.860Z,43.00
2023-04-17T13:11:36.823Z,42.88
2023-04-17T13:12:36.854Z,42.88
2023-04-17T13:13:36.840Z,42.69
2023-04-17T13:14:36.878Z,42.69
2023-04-17T13:15:36.836Z,42.98
2023-04-17T13:16:36.952Z,42.69
2023-04-17T13:17:36.845Z,42.59
2023-04-17T13:18:36.833Z,42.57
2023-04-17T13:19:36.865Z,42.98
2023-04-17T13:20:36.852Z,42.96
2023-04-17T13:21:36.851Z,43.15
2023-04-17T13:22:36.849Z,42.49
2023-04-17T13:23:36.871Z,42.41
2023-04-17T13:24:36.897Z,41.93
2023-04-17T13:25:36.883Z,41.75
2023-04-17T13:27:36.861Z,41.38
2023-04-17T13:28:36.888Z,41.38
2023-04-17T13:29:36.879Z,41.31
2023-04-17T13:30:36.975Z,41.21
2023-04-17T13:31:36.978Z,41.31
2023-04-17T13:32:36.942Z,41.41
2023-04-17T13:33:36.877Z,41.38
2023-04-17T13:34:36.957Z,41.38
2023-04-17T13:35:36.919Z,41.67
2023-04-17T13:36:36.888Z,41.95
2023-04-17T13:37:36.919Z,42.24
2023-04-17T13:38:36.911Z,42.12
2023-04-17T13:39:36.911Z,42.10
2023-04-17T13:40:36.932Z,42.40
2023-04-17T13:41:36.939Z,42.30
2023-04-17T13:42:36.911Z,42.40
2023-04-17T13:43:36.920Z,42.12
2023-04-17T13:44:36.947Z,42.05
2023-04-17T13:45:36.948Z,41.66
2023-04-17T13:46:36.975Z,41.38
2023-04-17T13:47:36.965Z,41.28
2023-04-17T13:48:37.015Z,41.21
2023-04-17T13:49:36.922Z,41.31
2023-04-17T13:50:36.987Z,40.92
2023-04-17T13:51:36.932Z,40.84
2023-04-17T13:52:36.939Z,40.35
2023-04-17T13:53:36.938Z,40.66
2023-04-17T13:54:36.976Z,40.76
2023-04-17T13:55:36.968Z,40.86
2023-04-17T13:56:36.955Z,40.97
2023-04-17T13:57:36.991Z,40.39
2023-04-17T13:58:36.967Z,40.39
2023-04-17T13:59:36.998Z,40.88
2023-04-17T14:00:36.997Z,40.31
2023-04-17T14:01:37.016Z,40.31
2023-04-17T14:02:37.309Z,40.33
2023-04-17T14:03:39.753Z,40.41
2023-04-17T14:04:37.145Z,40.60
2023-04-17T14:06:36.996Z,40.50
2023-04-17T14:07:37.000Z,40.41
2023-04-17T14:08:37.032Z,40.31
2023-04-17T14:09:37.044Z,40.78
2023-04-17T14:10:37.022Z,40.56
2023-04-17T14:11:37.037Z,40.88
2023-04-17T14:12:37.019Z,40.78
2023-04-17T14:13:37.154Z,40.41
2023-04-17T14:14:37.069Z,40.41
2023-04-17T14:15:37.103Z,40.41
2023-04-17T14:16:37.068Z,40.14
2023-04-17T14:17:37.052Z,39.74
2023-04-17T14:18:37.052Z,39.94
2023-04-17T14:19:37.062Z,39.84
2023-04-17T14:20:37.066Z,39.94
2023-04-17T14:21:37.072Z,40.06
2023-04-17T14:22:37.075Z,40.06
2023-04-17T14:23:37.088Z,39.84
2023-04-17T14:24:37.090Z,40.14
2023-04-17T14:25:37.128Z,40.31
2023-04-17T14:26:37.100Z,40.68
2023-04-17T14:27:37.113Z,40.37
2023-04-17T14:28:37.132Z,40.86
2023-04-17T14:29:37.156Z,40.66
2023-04-17T14:30:37.128Z,40.76
2023-04-17T14:31:37.126Z,40.68
2023-04-17T14:32:37.178Z,40.09
2023-04-17T14:33:37.126Z,40.19
2023-04-17T14:34:37.140Z,39.70
2023-04-17T14:35:37.161Z,40.00
2023-04-17T14:36:37.135Z,39.92
2023-04-17T14:37:37.158Z,39.82
2023-04-17T14:38:37.150Z,40.01
2023-04-17T14:39:37.150Z,39.92
2023-04-17T14:40:37.170Z,39.64
2023-04-17T14:41:37.219Z,39.74
2023-04-17T14:42:47.470Z,39.84
2023-04-17T14:43:37.169Z,39.92
2023-04-17T14:44:37.179Z,39.62
2023-04-17T14:45:37.318Z,39.92
2023-04-17T14:46:37.278Z,39.94
2023-04-17T14:47:37.209Z,39.53
2023-04-17T14:48:48.126Z,39.82
2023-04-17T14:49:37.199Z,39.80
2023-04-17T14:50:37.213Z,40.37
2023-04-17T14:51:37.224Z,40.37
2023-04-17T14:52:37.232Z,40.45
2023-04-17T14:53:37.220Z,40.64
2023-04-17T14:54:37.253Z,40.72
2023-04-17T14:55:37.258Z,40.23
2023-04-17T14:56:37.238Z,40.60
2023-04-17T14:57:37.262Z,40.50
2023-04-17T14:58:37.261Z,40.60
2023-04-17T14:59:37.263Z,40.31
2023-04-17T15:00:37.268Z,40.60
2023-04-17T15:01:37.309Z,40.31
2023-04-17T15:02:37.387Z,40.58
2023-04-17T15:03:37.493Z,40.76
2023-04-17T15:04:37.316Z,40.66
2023-04-17T15:05:38.021Z,40.95
2023-04-17T15:06:37.285Z,41.03
2023-04-17T15:07:37.269Z,40.56
2023-04-17T15:08:37.274Z,40.66
2023-04-17T15:09:37.275Z,40.56
2023-04-17T15:10:47.850Z,40.56
2023-04-17T15:11:37.274Z,40.56
2023-04-17T15:12:37.270Z,40.64
2023-04-17T15:13:37.274Z,40.73
2023-04-17T15:14:37.277Z,40.93
2023-04-17T15:15:37.315Z,41.30
2023-04-17T15:16:37.322Z,41.40
2023-04-17T15:17:37.448Z,41.30
2023-04-17T15:18:37.314Z,41.01
2023-04-17T15:19:37.296Z,41.11
2023-04-17T15:20:37.306Z,40.99
2023-04-17T15:21:37.298Z,41.28
2023-04-17T15:22:37.339Z,41.19
2023-04-17T15:23:37.319Z,41.36
2023-04-17T15:24:37.322Z,41.26
2023-04-17T15:25:37.318Z,41.26
2023-04-17T15:26:37.313Z,41.63
2023-04-17T15:27:37.355Z,41.63
2023-04-17T15:28:37.305Z,41.61
2023-04-17T15:29:37.308Z,42.19
2023-04-17T15:30:37.315Z,41.90
2023-04-17T15:31:37.362Z,41.98
2023-04-17T15:32:37.407Z,41.98
2023-04-17T15:33:37.368Z,41.96
2023-04-17T15:34:37.382Z,42.15
2023-04-17T15:35:37.383Z,42.25
2023-04-17T15:36:37.403Z,42.35
2023-04-17T15:37:37.327Z,42.52
2023-04-17T15:38:37.341Z,42.52
2023-04-17T15:39:37.352Z,42.43
2023-04-17T15:40:37.400Z,42.60
2023-04-17T15:41:37.382Z,42.69
2023-04-17T15:42:37.366Z,42.89
2023-04-17T15:43:37.336Z,42.60
2023-04-17T15:44:37.349Z,42.67
2023-04-17T15:45:37.361Z,42.77
2023-04-17T15:46:37.423Z,42.77
2023-04-17T15:47:37.363Z,42.65
2023-04-17T15:48:37.343Z,42.85
2023-04-17T15:49:37.448Z,42.94
2023-04-17T15:50:37.349Z,42.94
2023-04-17T15:51:39.523Z,43.04
2023-04-17T15:52:37.326Z,43.13
2023-04-17T15:53:37.337Z,43.02
2023-04-17T15:54:37.342Z,43.31
2023-04-17T15:55:37.382Z,43.02
2023-04-17T15:56:37.325Z,42.92
2023-04-17T15:57:37.406Z,43.12
2023-04-17T15:58:37.372Z,43.12
2023-04-17T15:59:37.317Z,43.29
2023-04-17T16:00:37.345Z,43.21
2023-04-17T16:14:21.496Z,43.75
2023-04-17T16:15:19.755Z,43.55
2023-04-17T16:16:19.777Z,43.75
2023-04-17T16:17:19.795Z,43.46
2023-04-17T16:18:19.764Z,43.37
2023-04-17T16:19:19.778Z,43.63
2023-04-17T16:20:19.753Z,43.82
2023-04-17T16:21:19.768Z,43.92
2023-04-17T16:22:19.753Z,43.92
2023-04-17T16:23:19.735Z,43.92
2023-04-17T16:24:19.754Z,43.92
2023-04-17T16:25:20.850Z,44.21
2023-04-17T16:26:19.738Z,43.92
2023-04-17T16:27:19.755Z,44.21
2023-04-17T16:28:19.725Z,44.19
2023-04-17T16:29:19.748Z,44.29
2023-04-17T16:30:19.832Z,44.19
2023-04-17T16:31:19.788Z,44.29
2023-04-17T16:32:19.784Z,44.38
2023-04-17T16:33:19.708Z,44.48
2023-04-17T16:34:19.725Z,44.48
2023-04-17T16:35:19.727Z,44.38
2023-04-17T16:36:19.715Z,44.48
2023-04-17T16:37:19.723Z,44.67
2023-04-17T16:38:19.716Z,44.65
2023-04-17T16:39:19.714Z,44.56
2023-04-17T16:40:19.732Z,44.56
2023-04-17T16:41:19.717Z,44.07
2023-04-17T16:42:19.702Z,44.65
2023-04-17T16:43:19.743Z,44.65
2023-04-17T16:44:19.692Z,44.65
2023-04-17T16:45:19.738Z,44.84
2023-04-17T16:46:26.204Z,44.84
2023-04-17T16:47:19.756Z,44.75
2023-04-17T16:48:19.786Z,44.75
2023-04-17T16:49:19.700Z,44.65
2023-04-17T16:50:19.705Z,44.84
2023-04-17T16:51:19.709Z,44.63
2023-04-17T16:52:19.680Z,44.34
2023-04-17T16:53:19.723Z,44.63
2023-04-17T16:54:19.689Z,44.43
2023-04-17T16:55:19.726Z,44.82
2023-04-17T16:56:19.709Z,44.63
2023-04-17T16:57:19.688Z,44.43
2023-04-17T16:58:19.671Z,44.92
2023-04-17T16:59:19.671Z,44.92
2023-04-17T17:00:19.679Z,44.92
2023-04-17T17:01:19.697Z,44.92
2023-04-17T17:02:19.701Z,45.31
2023-04-17T17:03:19.704Z,45.21
2023-04-17T17:04:19.720Z,45.31
2023-04-17T17:05:19.708Z,45.18
2023-04-17T17:06:19.657Z,45.28
2023-04-17T17:07:19.670Z,45.28
2023-04-17T17:08:19.656Z,45.28
2023-04-17T17:09:19.674Z,45.28
2023-04-17T17:10:19.645Z,45.38
2023-04-17T17:11:19.669Z,45.18
2023-04-17T17:12:19.642Z,45.28
2023-04-17T17:13:19.652Z,44.42
2023-04-17T17:14:19.628Z,45.28
2023-04-17T17:15:21.224Z,45.38
2023-04-17T17:16:19.680Z,45.57
2023-04-17T17:17:19.639Z,45.28
2023-04-17T17:18:19.674Z,44.90
2023-04-17T17:19:19.661Z,45.18
2023-04-17T17:20:19.647Z,45.18
2023-04-17T17:21:19.642Z,45.18
2023-04-17T17:22:19.611Z,45.17
2023-04-17T17:23:19.615Z,45.57
2023-04-17T17:24:19.619Z,45.65
2023-04-17T17:25:19.602Z,45.45
2023-04-17T17:26:19.618Z,45.45
2023-04-17T17:27:19.604Z,45.45
2023-04-17T17:28:19.617Z,45.18
2023-04-17T17:29:19.633Z,45.45